Northeast Iowa Regional Airport Charles City US
ICAO: KCCY
IATA: CCY
Category: Medium
Scheduled Services: No

Elevation: 1125 ft
TransAlt. 18000 ft.

Airport Communications:
WATERLOO APP/DEP:118.9
AWOS 3:125.525
FORT DODGE RDO:122.4
CTAF/UNICOM:122.8

KCCY Zoom In..

If you have problems with the map follow the link
https://www.worldairports.se/pages/airport.php?
ICAO=KCCY

Runways:

(A) RW 04 length 2536 ft width 160 ft
LOC 108.30 / hdg 42

(B) RW 12 length 4000 ft width 75 ft
LOC 108.30 / hdg 122

(C) RW 18 length 1780 ft width 170 ft
LOC 108.30 / hdg 177

(D) RW 22 length 2536 ft width 160 ft
LOC 108.30 / hdg 222

(E) RW 30 length 4000 ft width 75 ft
LOC 108.30 / hdg 302

(F) RW 36 length 1780 ft width 170 ft
LOC 108.30 / hdg 357

Location; KCCY
Day. 20 / Time. 21.15 Zulu
* Altimeter: 29.60
* Temperature: -01° c. -30.2°f.
* Wind from: 230° Speed 11 kn.
Dewpoint: -03° c.
Visibility: 8 Statute Miles.
Clouds: Broken 1400 ft.
Clouds: Broken 2100 ft.
Conditions: Light Snow.

KCCY 202115Z AUTO 23011KT 8SM -SN BKN014 BKN021 M01/M03 A2960 RMK AO2


Wind From 230°
Speed 11 kn.

 
 
jpsmedia.com for Web Design worldairports.se 2019   terms of use